sensor_id;sensor_type;location;lat;lon;timestamp;temperature;humidity
4985;DHT22;2509;49.902;8.600;2023-02-01T00:00:35;4.90;99.90
4985;DHT22;2509;49.902;8.600;2023-02-01T00:03:37;4.90;99.90
4985;DHT22;2509;49.902;8.600;2023-02-01T00:06:38;4.90;99.90
4985;DHT22;2509;49.902;8.600;2023-02-01T00:09:41;4.90;99.90
4985;DHT22;2509;49.902;8.600;2023-02-01T00:12:43;4.90;99.90
4985;DHT22;2509;49.902;8.600;2023-02-01T00:15:45;4.90;99.90
4985;DHT22;2509;49.902;8.600;2023-02-01T00:18:48;4.90;99.90
4985;DHT22;2509;49.902;8.600;2023-02-01T00:21:50;4.90;99.90
4985;DHT22;2509;49.902;8.600;2023-02-01T00:24:53;4.90;99.90
4985;DHT22;2509;49.902;8.600;2023-02-01T00:27:55;4.90;99.90
4985;DHT22;2509;49.902;8.600;2023-02-01T00:31:00;5.00;99.90
4985;DHT22;2509;49.902;8.600;2023-02-01T00:34:02;5.00;99.90
4985;DHT22;2509;49.902;8.600;2023-02-01T00:37:04;5.00;99.90
4985;DHT22;2509;49.902;8.600;2023-02-01T00:40:09;5.00;99.90
4985;DHT22;2509;49.902;8.600;2023-02-01T00:43:11;5.00;99.90
4985;DHT22;2509;49.902;8.600;2023-02-01T00:46:14;5.00;99.90
4985;DHT22;2509;49.902;8.600;2023-02-01T00:49:16;5.00;99.90
4985;DHT22;2509;49.902;8.600;2023-02-01T00:52:17;5.00;99.90
4985;DHT22;2509;49.902;8.600;2023-02-01T00:55:20;5.00;99.90
4985;DHT22;2509;49.902;8.600;2023-02-01T00:58:22;5.00;99.90
4985;DHT22;2509;49.902;8.600;2023-02-01T01:01:26;5.00;99.90
4985;DHT22;2509;49.902;8.600;2023-02-01T01:04:28;5.00;99.90
4985;DHT22;2509;49.902;8.600;2023-02-01T01:07:30;4.90;99.90
4985;DHT22;2509;49.902;8.600;2023-02-01T01:10:33;5.00;99.90
4985;DHT22;2509;49.902;8.600;2023-02-01T01:13:36;5.00;99.90
4985;DHT22;2509;49.902;8.600;2023-02-01T01:16:38;5.10;99.90
4985;DHT22;2509;49.902;8.600;2023-02-01T01:19:39;5.10;99.90
4985;DHT22;2509;49.902;8.600;2023-02-01T01:22:41;5.10;99.90
4985;DHT22;2509;49.902;8.600;2023-02-01T01:25:44;5.10;99.90
4985;DHT22;2509;49.902;8.600;2023-02-01T01:28:46;5.10;99.90
4985;DHT22;2509;49.902;8.600;2023-02-01T01:31:48;5.10;99.90
4985;DHT22;2509;49.902;8.600;2023-02-01T01:34:50;5.10;99.90
4985;DHT22;2509;49.902;8.600;2023-02-01T01:37:51;5.20;99.90
4985;DHT22;2509;49.902;8.600;2023-02-01T01:40:54;5.20;99.90
4985;DHT22;2509;49.902;8.600;2023-02-01T01:43:58;5.20;99.90
4985;DHT22;2509;49.902;8.600;2023-02-01T01:47:00;5.10;99.90
4985;DHT22;2509;49.902;8.600;2023-02-01T01:50:03;5.10;99.90
4985;DHT22;2509;49.902;8.600;2023-02-01T01:53:09;5.10;99.90
4985;DHT22;2509;49.902;8.600;2023-02-01T01:56:14;5.10;99.90
4985;DHT22;2509;49.902;8.600;2023-02-01T01:59:16;5.10;99.90
4985;DHT22;2509;49.902;8.600;2023-02-01T02:02:18;5.10;99.90
4985;DHT22;2509;49.902;8.600;2023-02-01T02:05:21;5.10;99.90
4985;DHT22;2509;49.902;8.600;2023-02-01T02:08:24;5.10;99.90
4985;DHT22;2509;49.902;8.600;2023-02-01T02:11:28;5.20;99.90
4985;DHT22;2509;49.902;8.600;2023-02-01T02:14:30;5.20;99.90
4985;DHT22;2509;49.902;8.600;2023-02-01T02:17:36;5.20;99.90
4985;DHT22;2509;49.902;8.600;2023-02-01T02:21:10;5.20;99.90
4985;DHT22;2509;49.902;8.600;2023-02-01T02:24:34;5.20;99.90
4985;DHT22;2509;49.902;8.600;2023-02-01T02:27:50;5.10;99.90
4985;DHT22;2509;49.902;8.600;2023-02-01T02:31:20;5.10;99.90
4985;DHT22;2509;49.902;8.600;2023-02-01T02:34:28;5.10;99.90
4985;DHT22;2509;49.902;8.600;2023-02-01T02:37:38;5.10;99.90
4985;DHT22;2509;49.902;8.600;2023-02-01T02:40:46;5.10;99.90
4985;DHT22;2509;49.902;8.600;2023-02-01T02:43:57;5.10;99.90
4985;DHT22;2509;49.902;8.600;2023-02-01T02:47:23;5.10;99.90
4985;DHT22;2509;49.902;8.600;2023-02-01T02:50:31;5.10;99.90
4985;DHT22;2509;49.902;8.600;2023-02-01T02:53:55;5.20;99.90
4985;DHT22;2509;49.902;8.600;2023-02-01T02:57:19;5.20;99.90
4985;DHT22;2509;49.902;8.600;2023-02-01T03:00:40;5.20;99.90
4985;DHT22;2509;49.902;8.600;2023-02-01T03:03:59;5.20;99.90
4985;DHT22;2509;49.902;8.600;2023-02-01T03:07:13;5.10;99.90
4985;DHT22;2509;49.902;8.600;2023-02-01T03:10:21;5.20;99.90
4985;DHT22;2509;49.902;8.600;2023-02-01T03:13:31;5.20;99.90
4985;DHT22;2509;49.902;8.600;2023-02-01T03:16:39;5.20;99.90
4985;DHT22;2509;49.902;8.600;2023-02-01T03:19:43;5.20;99.90
4985;DHT22;2509;49.902;8.600;2023-02-01T03:22:52;5.20;99.90
4985;DHT22;2509;49.902;8.600;2023-02-01T03:25:55;5.20;99.90
4985;DHT22;2509;49.902;8.600;2023-02-01T03:29:03;5.10;99.90
4985;DHT22;2509;49.902;8.600;2023-02-01T03:32:07;5.10;99.90
4985;DHT22;2509;49.902;8.600;2023-02-01T03:35:09;5.10;99.90
4985;DHT22;2509;49.902;8.600;2023-02-01T03:38:19;5.10;99.90
4985;DHT22;2509;49.902;8.600;2023-02-01T03:41:26;5.10;99.90
4985;DHT22;2509;49.902;8.600;2023-02-01T03:44:31;5.10;99.90
4985;DHT22;2509;49.902;8.600;2023-02-01T03:47:36;5.10;99.90
4985;DHT22;2509;49.902;8.600;2023-02-01T03:50:44;5.10;99.90
4985;DHT22;2509;49.902;8.600;2023-02-01T03:53:49;5.10;99.90
4985;DHT22;2509;49.902;8.600;2023-02-01T03:56:52;5.10;99.90
4985;DHT22;2509;49.902;8.600;2023-02-01T04:00:04;5.10;99.90
4985;DHT22;2509;49.902;8.600;2023-02-01T04:03:07;5.10;99.90
4985;DHT22;2509;49.902;8.600;2023-02-01T04:06:08;5.10;99.90
4985;DHT22;2509;49.902;8.600;2023-02-01T04:09:12;5.10;99.90
4985;DHT22;2509;49.902;8.600;2023-02-01T04:12:13;5.10;99.90
4985;DHT22;2509;49.902;8.600;2023-02-01T04:15:15;5.10;99.90
4985;DHT22;2509;49.902;8.600;2023-02-01T04:18:17;5.10;99.90
4985;DHT22;2509;49.902;8.600;2023-02-01T04:21:19;5.10;99.90
4985;DHT22;2509;49.902;8.600;2023-02-01T04:24:22;5.10;99.90
4985;DHT22;2509;49.902;8.600;2023-02-01T04:27:23;5.10;99.90
4985;DHT22;2509;49.902;8.600;2023-02-01T04:30:25;5.10;99.90
4985;DHT22;2509;49.902;8.600;2023-02-01T04:33:27;5.20;99.90
4985;DHT22;2509;49.902;8.600;2023-02-01T04:36:29;5.20;99.90
4985;DHT22;2509;49.902;8.600;2023-02-01T04:39:32;5.10;99.90
4985;DHT22;2509;49.902;8.600;2023-02-01T04:42:34;5.10;99.90
4985;DHT22;2509;49.902;8.600;2023-02-01T04:45:36;5.10;99.90
4985;DHT22;2509;49.902;8.600;2023-02-01T04:48:37;5.10;99.90
4985;DHT22;2509;49.902;8.600;2023-02-01T04:51:40;5.10;99.90
4985;DHT22;2509;49.902;8.600;2023-02-01T04:54:43;5.10;99.90
4985;DHT22;2509;49.902;8.600;2023-02-01T04:57:45;5.10;99.90
4985;DHT22;2509;49.902;8.600;2023-02-01T05:00:46;5.10;99.90
4985;DHT22;2509;49.902;8.600;2023-02-01T05:03:48;5.10;99.90
4985;DHT22;2509;49.902;8.600;2023-02-01T05:06:50;5.10;99.90
4985;DHT22;2509;49.902;8.600;2023-02-01T05:09:53;5.10;99.90
4985;DHT22;2509;49.902;8.600;2023-02-01T05:12:55;5.10;99.90
4985;DHT22;2509;49.902;8.600;2023-02-01T05:16:14;5.10;99.90
4985;DHT22;2509;49.902;8.600;2023-02-01T05:19:16;5.10;99.90
4985;DHT22;2509;49.902;8.600;2023-02-01T05:22:17;5.10;99.90
4985;DHT22;2509;49.902;8.600;2023-02-01T05:25:21;5.00;99.90
4985;DHT22;2509;49.902;8.600;2023-02-01T05:28:22;5.00;99.90
4985;DHT22;2509;49.902;8.600;2023-02-01T05:31:24;5.00;99.90
4985;DHT22;2509;49.902;8.600;2023-02-01T05:34:26;5.00;99.90
4985;DHT22;2509;49.902;8.600;2023-02-01T05:37:28;5.00;99.90
4985;DHT22;2509;49.902;8.600;2023-02-01T05:40:31;4.90;99.90
4985;DHT22;2509;49.902;8.600;2023-02-01T05:43:32;4.90;99.90
4985;DHT22;2509;49.902;8.600;2023-02-01T05:46:35;4.90;99.90
4985;DHT22;2509;49.902;8.600;2023-02-01T05:49:37;4.90;99.90
4985;DHT22;2509;49.902;8.600;2023-02-01T05:52:40;4.90;99.90
4985;DHT22;2509;49.902;8.600;2023-02-01T05:55:43;4.90;99.90
4985;DHT22;2509;49.902;8.600;2023-02-01T05:58:45;4.90;99.90
4985;DHT22;2509;49.902;8.600;2023-02-01T06:01:47;4.90;99.90
4985;DHT22;2509;49.902;8.600;2023-02-01T06:04:48;4.90;99.90
4985;DHT22;2509;49.902;8.600;2023-02-01T06:07:50;4.90;99.90
4985;DHT22;2509;49.902;8.600;2023-02-01T06:10:58;4.90;99.90
4985;DHT22;2509;49.902;8.600;2023-02-01T06:14:00;4.90;99.90
4985;DHT22;2509;49.902;8.600;2023-02-01T06:17:02;4.80;99.90
4985;DHT22;2509;49.902;8.600;2023-02-01T06:20:04;4.80;99.90
4985;DHT22;2509;49.902;8.600;2023-02-01T06:23:07;4.80;99.90
4985;DHT22;2509;49.902;8.600;2023-02-01T06:26:10;4.80;99.90
4985;DHT22;2509;49.902;8.600;2023-02-01T06:29:12;4.80;99.90
4985;DHT22;2509;49.902;8.600;2023-02-01T06:32:14;4.80;99.90
4985;DHT22;2509;49.902;8.600;2023-02-01T06:35:17;4.80;99.90
4985;DHT22;2509;49.902;8.600;2023-02-01T06:38:19;4.80;99.90
4985;DHT22;2509;49.902;8.600;2023-02-01T06:41:22;4.80;99.90
4985;DHT22;2509;49.902;8.600;2023-02-01T06:44:24;4.70;99.90
4985;DHT22;2509;49.902;8.600;2023-02-01T06:47:26;4.70;99.90
4985;DHT22;2509;49.902;8.600;2023-02-01T06:50:27;4.70;99.90
4985;DHT22;2509;49.902;8.600;2023-02-01T06:53:29;4.70;99.90
4985;DHT22;2509;49.902;8.600;2023-02-01T06:56:32;4.60;99.90
4985;DHT22;2509;49.902;8.600;2023-02-01T06:59:34;4.60;99.90
4985;DHT22;2509;49.902;8.600;2023-02-01T07:02:35;4.60;99.90
4985;DHT22;2509;49.902;8.600;2023-02-01T07:05:38;4.50;99.90
4985;DHT22;2509;49.902;8.600;2023-02-01T07:08:40;4.50;99.90
4985;DHT22;2509;49.902;8.600;2023-02-01T07:11:43;4.50;99.90
4985;DHT22;2509;49.902;8.600;2023-02-01T07:14:45;4.50;99.90
4985;DHT22;2509;49.902;8.600;2023-02-01T07:17:47;4.50;99.90
4985;DHT22;2509;49.902;8.600;2023-02-01T07:20:50;4.40;99.90
4985;DHT22;2509;49.902;8.600;2023-02-01T07:23:51;4.40;99.90
4985;DHT22;2509;49.902;8.600;2023-02-01T07:26:55;4.40;99.90
4985;DHT22;2509;49.902;8.600;2023-02-01T07:29:56;4.30;99.90
4985;DHT22;2509;49.902;8.600;2023-02-01T07:33:02;4.30;99.90
4985;DHT22;2509;49.902;8.600;2023-02-01T07:36:06;4.30;99.90
4985;DHT22;2509;49.902;8.600;2023-02-01T07:39:08;4.30;99.90
4985;DHT22;2509;49.902;8.600;2023-02-01T07:42:11;4.30;99.90
4985;DHT22;2509;49.902;8.600;2023-02-01T07:45:13;4.30;99.90
4985;DHT22;2509;49.902;8.600;2023-02-01T07:48:15;4.30;99.90
4985;DHT22;2509;49.902;8.600;2023-02-01T07:51:17;4.30;99.90
4985;DHT22;2509;49.902;8.600;2023-02-01T07:54:19;4.30;99.90
4985;DHT22;2509;49.902;8.600;2023-02-01T07:57:22;4.40;99.90
4985;DHT22;2509;49.902;8.600;2023-02-01T08:00:25;4.40;99.90
4985;DHT22;2509;49.902;8.600;2023-02-01T08:03:43;4.50;99.90
4985;DHT22;2509;49.902;8.600;2023-02-01T08:06:45;4.50;99.90
4985;DHT22;2509;49.902;8.600;2023-02-01T08:09:46;4.60;99.90
4985;DHT22;2509;49.902;8.600;2023-02-01T08:12:49;4.70;99.90
4985;DHT22;2509;49.902;8.600;2023-02-01T08:15:52;4.80;99.90
4985;DHT22;2509;49.902;8.600;2023-02-01T08:18:54;4.90;99.90
4985;DHT22;2509;49.902;8.600;2023-02-01T08:21:56;5.00;99.90
4985;DHT22;2509;49.902;8.600;2023-02-01T08:24:57;5.10;99.90
4985;DHT22;2509;49.902;8.600;2023-02-01T08:28:03;5.10;99.90
4985;DHT22;2509;49.902;8.600;2023-02-01T08:31:06;5.20;99.90
4985;DHT22;2509;49.902;8.600;2023-02-01T08:34:09;5.20;99.90
4985;DHT22;2509;49.902;8.600;2023-02-01T08:37:12;5.30;99.90
4985;DHT22;2509;49.902;8.600;2023-02-01T08:40:14;5.40;99.90
4985;DHT22;2509;49.902;8.600;2023-02-01T08:43:18;5.60;99.90
4985;DHT22;2509;49.902;8.600;2023-02-01T08:46:20;5.70;99.90
4985;DHT22;2509;49.902;8.600;2023-02-01T08:49:22;5.90;99.90
4985;DHT22;2509;49.902;8.600;2023-02-01T08:52:24;6.00;99.90
4985;DHT22;2509;49.902;8.600;2023-02-01T08:55:26;6.00;99.90
4985;DHT22;2509;49.902;8.600;2023-02-01T08:58:29;6.10;99.90
4985;DHT22;2509;49.902;8.600;2023-02-01T09:01:31;6.00;99.90
4985;DHT22;2509;49.902;8.600;2023-02-01T09:04:33;6.00;99.90
4985;DHT22;2509;49.902;8.600;2023-02-01T09:07:34;6.00;99.90
4985;DHT22;2509;49.902;8.600;2023-02-01T09:10:36;6.00;99.90
4985;DHT22;2509;49.902;8.600;2023-02-01T09:13:39;6.00;99.90
4985;DHT22;2509;49.902;8.600;2023-02-01T09:16:42;6.00;99.90
4985;DHT22;2509;49.902;8.600;2023-02-01T09:19:43;6.00;99.90
4985;DHT22;2509;49.902;8.600;2023-02-01T09:22:45;6.00;99.90
4985;DHT22;2509;49.902;8.600;2023-02-01T09:25:47;6.10;99.90
4985;DHT22;2509;49.902;8.600;2023-02-01T09:28:52;6.10;99.90
4985;DHT22;2509;49.902;8.600;2023-02-01T09:31:53;6.30;99.90
4985;DHT22;2509;49.902;8.600;2023-02-01T09:34:55;6.30;99.90
4985;DHT22;2509;49.902;8.600;2023-02-01T09:37:57;6.30;99.90
4985;DHT22;2509;49.902;8.600;2023-02-01T09:40:59;6.30;99.90
4985;DHT22;2509;49.902;8.600;2023-02-01T09:44:10;6.30;99.90
4985;DHT22;2509;49.902;8.600;2023-02-01T09:47:16;6.30;99.90
4985;DHT22;2509;49.902;8.600;2023-02-01T09:50:21;6.30;99.90
4985;DHT22;2509;49.902;8.600;2023-02-01T09:53:28;6.30;99.90
4985;DHT22;2509;49.902;8.600;2023-02-01T09:56:35;6.30;99.90
4985;DHT22;2509;49.902;8.600;2023-02-01T09:59:41;6.30;99.90
4985;DHT22;2509;49.902;8.600;2023-02-01T10:02:44;6.40;99.90
4985;DHT22;2509;49.902;8.600;2023-02-01T10:05:56;6.30;99.90
4985;DHT22;2509;49.902;8.600;2023-02-01T10:09:15;6.30;99.90
4985;DHT22;2509;49.902;8.600;2023-02-01T10:13:04;6.30;99.90
4985;DHT22;2509;49.902;8.600;2023-02-01T10:16:34;6.50;99.90
4985;DHT22;2509;49.902;8.600;2023-02-01T10:19:46;6.60;99.90
4985;DHT22;2509;49.902;8.600;2023-02-01T10:22:58;6.60;99.90
4985;DHT22;2509;49.902;8.600;2023-02-01T10:26:09;6.60;99.90
4985;DHT22;2509;49.902;8.600;2023-02-01T10:29:20;6.70;99.90
4985;DHT22;2509;49.902;8.600;2023-02-01T10:32:31;6.70;99.90
4985;DHT22;2509;49.902;8.600;2023-02-01T10:35:39;6.60;99.90
4985;DHT22;2509;49.902;8.600;2023-02-01T10:38:42;6.60;99.90
4985;DHT22;2509;49.902;8.600;2023-02-01T10:41:50;6.70;99.90
4985;DHT22;2509;49.902;8.600;2023-02-01T10:44:54;6.60;99.90
4985;DHT22;2509;49.902;8.600;2023-02-01T10:48:02;6.60;99.90
4985;DHT22;2509;49.902;8.600;2023-02-01T10:51:14;6.60;99.90
4985;DHT22;2509;49.902;8.600;2023-02-01T10:54:19;6.70;99.90
4985;DHT22;2509;49.902;8.600;2023-02-01T10:57:24;6.60;99.90
4985;DHT22;2509;49.902;8.600;2023-02-01T11:00:37;6.60;99.90
4985;DHT22;2509;49.902;8.600;2023-02-01T11:03:44;6.70;99.90
4985;DHT22;2509;49.902;8.600;2023-02-01T11:06:48;6.80;99.90
4985;DHT22;2509;49.902;8.600;2023-02-01T11:09:52;6.80;99.90
4985;DHT22;2509;49.902;8.600;2023-02-01T11:13:01;6.80;99.90
4985;DHT22;2509;49.902;8.600;2023-02-01T11:16:05;6.90;99.90
4985;DHT22;2509;49.902;8.600;2023-02-01T11:19:14;6.90;99.90
4985;DHT22;2509;49.902;8.600;2023-02-01T11:22:17;6.90;99.90
4985;DHT22;2509;49.902;8.600;2023-02-01T11:25:19;6.90;99.90
4985;DHT22;2509;49.902;8.600;2023-02-01T11:28:24;6.90;99.90
4985;DHT22;2509;49.902;8.600;2023-02-01T11:31:30;6.90;99.90
4985;DHT22;2509;49.902;8.600;2023-02-01T11:34:38;6.90;99.90
4985;DHT22;2509;49.902;8.600;2023-02-01T11:37:43;6.90;99.90
4985;DHT22;2509;49.902;8.600;2023-02-01T11:40:45;6.90;99.90
4985;DHT22;2509;49.902;8.600;2023-02-01T11:43:53;6.90;99.90
4985;DHT22;2509;49.902;8.600;2023-02-01T11:46:56;6.90;99.90
4985;DHT22;2509;49.902;8.600;2023-02-01T11:50:18;6.90;99.90
4985;DHT22;2509;49.902;8.600;2023-02-01T11:53:35;6.80;99.90
4985;DHT22;2509;49.902;8.600;2023-02-01T11:56:48;6.80;99.90
4985;DHT22;2509;49.902;8.600;2023-02-01T12:00:06;6.90;99.90
4985;DHT22;2509;49.902;8.600;2023-02-01T12:03:29;6.90;99.90
4985;DHT22;2509;49.902;8.600;2023-02-01T12:06:46;6.90;99.90
4985;DHT22;2509;49.902;8.600;2023-02-01T12:10:03;6.90;99.90
4985;DHT22;2509;49.902;8.600;2023-02-01T12:13:16;6.80;99.90
4985;DHT22;2509;49.902;8.600;2023-02-01T12:16:29;6.90;99.90
4985;DHT22;2509;49.902;8.600;2023-02-01T12:19:44;7.00;99.90
4985;DHT22;2509;49.902;8.600;2023-02-01T12:22:59;7.00;99.90
4985;DHT22;2509;49.902;8.600;2023-02-01T12:26:13;7.00;99.90
4985;DHT22;2509;49.902;8.600;2023-02-01T12:29:34;7.00;99.90
4985;DHT22;2509;49.902;8.600;2023-02-01T12:32:50;7.10;99.90
4985;DHT22;2509;49.902;8.600;2023-02-01T12:36:11;7.10;99.90
4985;DHT22;2509;49.902;8.600;2023-02-01T12:39:23;7.10;99.90
4985;DHT22;2509;49.902;8.600;2023-02-01T12:42:29;7.10;99.90
4985;DHT22;2509;49.902;8.600;2023-02-01T12:45:37;7.20;99.90
4985;DHT22;2509;49.902;8.600;2023-02-01T12:48:48;7.20;99.90
4985;DHT22;2509;49.902;8.600;2023-02-01T12:52:00;7.20;99.90
4985;DHT22;2509;49.902;8.600;2023-02-01T12:55:09;7.20;99.90
4985;DHT22;2509;49.902;8.600;2023-02-01T12:58:18;7.30;99.90
4985;DHT22;2509;49.902;8.600;2023-02-01T13:01:26;7.30;99.90
4985;DHT22;2509;49.902;8.600;2023-02-01T13:04:33;7.40;99.90
4985;DHT22;2509;49.902;8.600;2023-02-01T13:07:39;7.30;99.90
4985;DHT22;2509;49.902;8.600;2023-02-01T13:10:51;7.40;99.90
4985;DHT22;2509;49.902;8.600;2023-02-01T13:14:02;7.40;99.90
4985;DHT22;2509;49.902;8.600;2023-02-01T13:17:14;7.30;99.90
4985;DHT22;2509;49.902;8.600;2023-02-01T13:20:21;7.30;99.90
4985;DHT22;2509;49.902;8.600;2023-02-01T13:23:27;7.30;99.90
4985;DHT22;2509;49.902;8.600;2023-02-01T13:26:32;7.30;99.90
4985;DHT22;2509;49.902;8.600;2023-02-01T13:29:34;7.30;99.90
4985;DHT22;2509;49.902;8.600;2023-02-01T13:32:56;7.30;99.90
4985;DHT22;2509;49.902;8.600;2023-02-01T13:36:22;7.30;99.90
4985;DHT22;2509;49.902;8.600;2023-02-01T13:39:45;7.30;99.90
4985;DHT22;2509;49.902;8.600;2023-02-01T13:42:51;7.30;99.90
4985;DHT22;2509;49.902;8.600;2023-02-01T13:45:56;7.20;99.90
4985;DHT22;2509;49.902;8.600;2023-02-01T13:49:00;7.20;99.90
4985;DHT22;2509;49.902;8.600;2023-02-01T13:52:03;7.20;99.90
4985;DHT22;2509;49.902;8.600;2023-02-01T13:55:25;7.30;99.90
4985;DHT22;2509;49.902;8.600;2023-02-01T13:58:33;7.40;99.90
4985;DHT22;2509;49.902;8.600;2023-02-01T14:01:35;7.40;99.90
4985;DHT22;2509;49.902;8.600;2023-02-01T14:04:48;7.50;99.90
4985;DHT22;2509;49.902;8.600;2023-02-01T14:08:09;7.50;99.90
4985;DHT22;2509;49.902;8.600;2023-02-01T14:11:40;7.40;99.90
4985;DHT22;2509;49.902;8.600;2023-02-01T14:14:50;7.40;99.90
4985;DHT22;2509;49.902;8.600;2023-02-01T14:17:51;7.40;99.90
4985;DHT22;2509;49.902;8.600;2023-02-01T14:21:12;7.40;99.90
4985;DHT22;2509;49.902;8.600;2023-02-01T14:24:20;7.40;99.90
4985;DHT22;2509;49.902;8.600;2023-02-01T14:27:25;7.40;99.90
4985;DHT22;2509;49.902;8.600;2023-02-01T14:30:29;7.40;99.90
4985;DHT22;2509;49.902;8.600;2023-02-01T14:33:30;7.40;99.90
4985;DHT22;2509;49.902;8.600;2023-02-01T14:36:41;7.40;99.90
4985;DHT22;2509;49.902;8.600;2023-02-01T14:40:02;7.40;99.90
4985;DHT22;2509;49.902;8.600;2023-02-01T14:43:07;7.40;99.90
4985;DHT22;2509;49.902;8.600;2023-02-01T14:46:10;7.40;99.90
4985;DHT22;2509;49.902;8.600;2023-02-01T14:49:12;7.50;99.90
4985;DHT22;2509;49.902;8.600;2023-02-01T14:52:17;7.50;99.90
4985;DHT22;2509;49.902;8.600;2023-02-01T14:55:24;7.50;99.90
4985;DHT22;2509;49.902;8.600;2023-02-01T14:58:35;7.60;99.90
4985;DHT22;2509;49.902;8.600;2023-02-01T15:01:48;7.60;99.90
4985;DHT22;2509;49.902;8.600;2023-02-01T15:04:54;7.60;99.90
4985;DHT22;2509;49.902;8.600;2023-02-01T15:08:00;7.60;99.90
4985;DHT22;2509;49.902;8.600;2023-02-01T15:11:08;7.60;99.90
4985;DHT22;2509;49.902;8.600;2023-02-01T15:14:14;7.60;99.90
4985;DHT22;2509;49.902;8.600;2023-02-01T15:17:20;7.60;99.90
4985;DHT22;2509;49.902;8.600;2023-02-01T15:20:24;7.60;99.90
4985;DHT22;2509;49.902;8.600;2023-02-01T15:23:28;7.60;99.90
4985;DHT22;2509;49.902;8.600;2023-02-01T15:26:31;7.60;99.90
4985;DHT22;2509;49.902;8.600;2023-02-01T15:29:33;7.70;99.90
4985;DHT22;2509;49.902;8.600;2023-02-01T15:32:39;7.70;99.90
4985;DHT22;2509;49.902;8.600;2023-02-01T15:35:43;7.70;99.90
4985;DHT22;2509;49.902;8.600;2023-02-01T15:38:45;7.70;99.90
4985;DHT22;2509;49.902;8.600;2023-02-01T15:41:49;7.70;99.90
4985;DHT22;2509;49.902;8.600;2023-02-01T15:44:53;7.60;99.90
4985;DHT22;2509;49.902;8.600;2023-02-01T15:47:58;7.60;99.90
4985;DHT22;2509;49.902;8.600;2023-02-01T15:51:00;7.60;99.90
4985;DHT22;2509;49.902;8.600;2023-02-01T15:54:05;7.60;99.90
4985;DHT22;2509;49.902;8.600;2023-02-01T15:57:08;7.60;99.90
4985;DHT22;2509;49.902;8.600;2023-02-01T16:00:23;7.60;99.90
4985;DHT22;2509;49.902;8.600;2023-02-01T16:03:39;7.60;99.90
4985;DHT22;2509;49.902;8.600;2023-02-01T16:06:46;7.50;99.90
4985;DHT22;2509;49.902;8.600;2023-02-01T16:09:53;7.50;99.90
4985;DHT22;2509;49.902;8.600;2023-02-01T16:12:55;7.50;99.90
4985;DHT22;2509;49.902;8.600;2023-02-01T16:16:00;7.60;99.90
4985;DHT22;2509;49.902;8.600;2023-02-01T16:19:03;7.50;99.90
4985;DHT22;2509;49.902;8.600;2023-02-01T16:22:05;7.50;99.90
4985;DHT22;2509;49.902;8.600;2023-02-01T16:25:07;7.50;99.90
4985;DHT22;2509;49.902;8.600;2023-02-01T16:28:09;7.50;99.90
4985;DHT22;2509;49.902;8.600;2023-02-01T16:31:12;7.50;99.90
4985;DHT22;2509;49.902;8.600;2023-02-01T16:34:21;7.50;99.90
4985;DHT22;2509;49.902;8.600;2023-02-01T16:37:24;7.50;99.90
4985;DHT22;2509;49.902;8.600;2023-02-01T16:40:28;7.40;99.90
4985;DHT22;2509;49.902;8.600;2023-02-01T16:43:30;7.50;99.90
4985;DHT22;2509;49.902;8.600;2023-02-01T16:46:42;7.50;99.90
4985;DHT22;2509;49.902;8.600;2023-02-01T16:49:47;7.50;99.90
4985;DHT22;2509;49.902;8.600;2023-02-01T16:52:49;7.50;99.90
4985;DHT22;2509;49.902;8.600;2023-02-01T16:55:52;7.40;99.90
4985;DHT22;2509;49.902;8.600;2023-02-01T16:58:54;7.40;99.90
4985;DHT22;2509;49.902;8.600;2023-02-01T17:01:56;7.30;99.90
4985;DHT22;2509;49.902;8.600;2023-02-01T17:05:23;7.20;99.90
4985;DHT22;2509;49.902;8.600;2023-02-01T17:08:33;7.20;99.90
4985;DHT22;2509;49.902;8.600;2023-02-01T17:11:46;7.20;99.90
4985;DHT22;2509;49.902;8.600;2023-02-01T17:14:48;7.10;99.90
4985;DHT22;2509;49.902;8.600;2023-02-01T17:21:42;7.00;99.90
4985;DHT22;2509;49.902;8.600;2023-02-01T17:24:53;6.90;99.90
4985;DHT22;2509;49.902;8.600;2023-02-01T17:28:14;6.90;99.90
4985;DHT22;2509;49.902;8.600;2023-02-01T17:31:36;6.90;99.90
4985;DHT22;2509;49.902;8.600;2023-02-01T17:34:41;6.80;99.90
4985;DHT22;2509;49.902;8.600;2023-02-01T17:38:10;6.70;99.90
4985;DHT22;2509;49.902;8.600;2023-02-01T17:41:22;6.70;99.90
4985;DHT22;2509;49.902;8.600;2023-02-01T17:44:28;6.60;99.90
4985;DHT22;2509;49.902;8.600;2023-02-01T17:47:32;6.60;99.90
4985;DHT22;2509;49.902;8.600;2023-02-01T17:50:37;6.60;99.90
4985;DHT22;2509;49.902;8.600;2023-02-01T17:53:41;6.60;99.90
4985;DHT22;2509;49.902;8.600;2023-02-01T17:56:43;6.60;99.90
4985;DHT22;2509;49.902;8.600;2023-02-01T17:59:57;6.60;99.90
4985;DHT22;2509;49.902;8.600;2023-02-01T18:03:18;6.60;99.90
4985;DHT22;2509;49.902;8.600;2023-02-01T18:06:26;6.60;99.90
4985;DHT22;2509;49.902;8.600;2023-02-01T18:09:32;6.60;99.90
4985;DHT22;2509;49.902;8.600;2023-02-01T18:12:35;6.60;99.90
4985;DHT22;2509;49.902;8.600;2023-02-01T18:15:39;6.60;99.90
4985;DHT22;2509;49.902;8.600;2023-02-01T18:18:50;6.60;99.90
4985;DHT22;2509;49.902;8.600;2023-02-01T18:22:16;6.60;99.90
4985;DHT22;2509;49.902;8.600;2023-02-01T18:25:30;6.60;99.90
4985;DHT22;2509;49.902;8.600;2023-02-01T18:28:37;6.60;99.90
4985;DHT22;2509;49.902;8.600;2023-02-01T18:31:44;6.60;99.90
4985;DHT22;2509;49.902;8.600;2023-02-01T18:34:46;6.60;99.90
4985;DHT22;2509;49.902;8.600;2023-02-01T18:37:48;6.60;99.90
4985;DHT22;2509;49.902;8.600;2023-02-01T18:40:53;6.60;99.90
4985;DHT22;2509;49.902;8.600;2023-02-01T18:43:57;6.50;99.90
4985;DHT22;2509;49.902;8.600;2023-02-01T18:46:59;6.50;99.90
4985;DHT22;2509;49.902;8.600;2023-02-01T18:50:01;6.50;99.90
4985;DHT22;2509;49.902;8.600;2023-02-01T18:53:17;6.50;99.90
4985;DHT22;2509;49.902;8.600;2023-02-01T18:56:21;6.50;99.90
4985;DHT22;2509;49.902;8.600;2023-02-01T18:59:25;6.50;99.90
4985;DHT22;2509;49.902;8.600;2023-02-01T19:02:30;6.50;99.90
4985;DHT22;2509;49.902;8.600;2023-02-01T19:05:35;6.60;99.90
4985;DHT22;2509;49.902;8.600;2023-02-01T19:08:37;6.60;99.90
4985;DHT22;2509;49.902;8.600;2023-02-01T19:11:41;6.60;99.90
4985;DHT22;2509;49.902;8.600;2023-02-01T19:14:46;6.60;99.90
4985;DHT22;2509;49.902;8.600;2023-02-01T19:17:59;6.60;99.90
4985;DHT22;2509;49.902;8.600;2023-02-01T19:21:14;6.60;99.90
4985;DHT22;2509;49.902;8.600;2023-02-01T19:24:16;6.60;99.90
4985;DHT22;2509;49.902;8.600;2023-02-01T19:27:31;6.60;99.90
4985;DHT22;2509;49.902;8.600;2023-02-01T19:30:51;6.60;99.90
4985;DHT22;2509;49.902;8.600;2023-02-01T19:34:06;6.60;99.90
4985;DHT22;2509;49.902;8.600;2023-02-01T19:37:22;6.60;99.90
4985;DHT22;2509;49.902;8.600;2023-02-01T19:40:30;6.60;99.90
4985;DHT22;2509;49.902;8.600;2023-02-01T19:43:38;6.50;99.90
4985;DHT22;2509;49.902;8.600;2023-02-01T19:47:02;6.50;99.90
4985;DHT22;2509;49.902;8.600;2023-02-01T19:50:28;6.50;99.90
4985;DHT22;2509;49.902;8.600;2023-02-01T19:53:36;6.50;99.90
4985;DHT22;2509;49.902;8.600;2023-02-01T19:57:01;6.50;99.90
4985;DHT22;2509;49.902;8.600;2023-02-01T20:03:39;6.40;99.90
4985;DHT22;2509;49.902;8.600;2023-02-01T20:06:47;6.40;99.90
4985;DHT22;2509;49.902;8.600;2023-02-01T20:09:59;6.40;99.90
4985;DHT22;2509;49.902;8.600;2023-02-01T20:13:01;6.40;99.90
4985;DHT22;2509;49.902;8.600;2023-02-01T20:16:05;6.40;99.90
4985;DHT22;2509;49.902;8.600;2023-02-01T20:19:07;6.40;99.90
4985;DHT22;2509;49.902;8.600;2023-02-01T20:22:09;6.50;99.90
4985;DHT22;2509;49.902;8.600;2023-02-01T20:25:11;6.50;99.90
4985;DHT22;2509;49.902;8.600;2023-02-01T20:28:13;6.50;99.90
4985;DHT22;2509;49.902;8.600;2023-02-01T20:31:16;6.50;99.90
4985;DHT22;2509;49.902;8.600;2023-02-01T20:34:18;6.50;99.90
4985;DHT22;2509;49.902;8.600;2023-02-01T20:37:20;6.50;99.90
4985;DHT22;2509;49.902;8.600;2023-02-01T20:40:23;6.60;99.90
4985;DHT22;2509;49.902;8.600;2023-02-01T20:43:25;6.60;99.90